createdAt,value
2023-04-18T00:00:53.035Z,433.00
2023-04-18T00:01:53.141Z,405.00
2023-04-18T00:02:53.431Z,400.00
2023-04-18T00:03:53.384Z,400.00
2023-04-18T00:04:53.325Z,406.00
2023-04-18T00:05:53.329Z,425.00
2023-04-18T00:06:53.402Z,448.00
2023-04-18T00:07:53.460Z,482.00
2023-04-18T00:08:53.532Z,500.00
2023-04-18T00:09:53.551Z,500.00
2023-04-18T00:10:53.654Z,502.00
2023-04-18T00:11:53.604Z,500.00
2023-04-18T00:12:53.646Z,500.00
2023-04-18T00:13:53.680Z,500.00
2023-04-18T00:14:53.706Z,500.00
2023-04-18T00:15:53.757Z,500.00
2023-04-18T00:16:53.881Z,500.00
2023-04-18T00:17:53.894Z,503.00
2023-04-18T00:18:53.939Z,500.00
2023-04-18T00:19:53.994Z,501.00
2023-04-18T00:20:54.102Z,501.00
2023-04-18T00:21:54.128Z,503.00
2023-04-18T00:22:54.190Z,502.00
2023-04-18T00:23:54.243Z,500.00
2023-04-18T00:24:54.279Z,503.00
2023-04-18T00:25:54.332Z,500.00
2023-04-18T00:26:54.415Z,500.00
2023-04-18T00:27:54.448Z,503.00
2023-04-18T00:28:54.504Z,504.00
2023-04-18T00:29:54.573Z,506.00
2023-04-18T00:30:54.701Z,501.00
2023-04-18T00:31:54.685Z,500.00
2023-04-18T00:32:54.775Z,502.00
2023-04-18T00:33:54.755Z,501.00
2023-04-18T00:34:54.758Z,500.00
2023-04-18T00:35:54.769Z,502.00
2023-04-18T00:36:54.794Z,501.00
2023-04-18T00:37:54.818Z,501.00
2023-04-18T00:38:54.866Z,502.00
2023-04-18T00:39:54.872Z,502.00
2023-04-18T00:40:54.917Z,503.00
2023-04-18T00:41:54.971Z,504.00
2023-04-18T00:42:55.052Z,506.00
2023-04-18T00:43:55.099Z,502.00
2023-04-18T00:44:55.161Z,500.00
2023-04-18T00:45:55.229Z,502.00
2023-04-18T00:46:55.276Z,503.00
2023-04-18T00:47:55.377Z,502.00
2023-04-18T00:48:55.372Z,500.00
2023-04-18T00:49:55.411Z,504.00
2023-04-18T00:50:55.452Z,501.00
2023-04-18T00:51:55.486Z,500.00
2023-04-18T00:52:55.554Z,503.00
2023-04-18T00:53:55.605Z,503.00
2023-04-18T00:54:55.708Z,501.00
2023-04-18T00:55:55.718Z,503.00
2023-04-18T00:56:55.779Z,503.00
2023-04-18T00:57:55.821Z,502.00
2023-04-18T00:58:56.014Z,500.00
2023-04-18T00:59:55.900Z,503.00
2023-04-18T01:00:55.955Z,505.00
2023-04-18T01:01:56.108Z,505.00
2023-04-18T01:02:56.229Z,504.00
2023-04-18T01:03:56.186Z,503.00
2023-04-18T01:04:56.171Z,501.00
2023-04-18T01:05:56.195Z,503.00
2023-04-18T01:06:56.230Z,506.00
2023-04-18T01:07:56.254Z,502.00
2023-04-18T01:08:56.288Z,502.00
2023-04-18T01:09:56.340Z,506.00
2023-04-18T01:10:56.369Z,505.00
2023-04-18T01:11:56.425Z,503.00
2023-04-18T01:12:56.506Z,504.00
2023-04-18T01:13:56.552Z,500.00
2023-04-18T01:14:56.631Z,500.00
2023-04-18T01:15:56.725Z,507.00
2023-04-18T01:16:56.750Z,510.00
2023-04-18T01:17:56.853Z,504.00
2023-04-18T01:18:56.897Z,509.00
2023-04-18T01:19:57.333Z,509.00
2023-04-18T01:20:57.329Z,507.00
2023-04-18T01:21:57.374Z,508.00
2023-04-18T01:22:57.342Z,506.00
2023-04-18T01:23:57.330Z,502.00
2023-04-18T01:24:57.335Z,500.00
2023-04-18T01:25:57.338Z,504.00
2023-04-18T01:26:57.338Z,500.00
2023-04-18T01:27:57.380Z,510.00
2023-04-18T01:28:58.335Z,505.00
2023-04-18T01:29:57.477Z,508.00
2023-04-18T01:30:57.621Z,501.00
2023-04-18T01:31:57.592Z,507.00
2023-04-18T01:32:57.668Z,503.00
2023-04-18T01:33:57.684Z,503.00
2023-04-18T01:34:57.754Z,512.00
2023-04-18T01:35:57.793Z,503.00
2023-04-18T01:36:57.835Z,508.00
2023-04-18T01:37:57.848Z,504.00
2023-04-18T01:38:57.866Z,506.00
2023-04-18T01:39:57.894Z,504.00
2023-04-18T01:40:58.303Z,505.00
2023-04-18T01:41:58.343Z,503.00
2023-04-18T01:42:58.341Z,500.00
2023-04-18T01:43:58.346Z,500.00
2023-04-18T01:44:58.348Z,507.00
2023-04-18T01:45:58.392Z,510.00
2023-04-18T01:46:58.470Z,506.00
2023-04-18T01:47:58.369Z,505.00
2023-04-18T01:48:58.356Z,504.00
2023-04-18T01:49:58.350Z,501.00
2023-04-18T01:50:58.393Z,506.00
2023-04-18T01:51:58.435Z,505.00
2023-04-18T01:52:58.487Z,504.00
2023-04-18T01:53:58.552Z,504.00
2023-04-18T01:54:58.586Z,502.00
2023-04-18T01:55:59.058Z,502.00
2023-04-18T01:56:58.685Z,505.00
2023-04-18T01:57:58.744Z,507.00
2023-04-18T01:58:58.786Z,505.00
2023-04-18T01:59:58.856Z,509.00
2023-04-18T02:00:58.964Z,508.00
2023-04-18T02:01:59.628Z,509.00
2023-04-18T02:02:59.222Z,508.00
2023-04-18T02:03:59.284Z,503.00
2023-04-18T02:04:59.126Z,509.00
2023-04-18T02:05:59.191Z,505.00
2023-04-18T02:06:59.192Z,505.00
2023-04-18T02:07:59.230Z,502.00
2023-04-18T02:08:59.289Z,507.00
2023-04-18T02:09:59.329Z,505.00
2023-04-18T02:10:59.368Z,506.00
2023-04-18T02:11:59.403Z,502.00
2023-04-18T02:12:59.442Z,507.00
2023-04-18T02:13:59.518Z,505.00
2023-04-18T02:14:59.509Z,506.00
2023-04-18T02:15:59.577Z,505.00
2023-04-18T02:16:59.543Z,502.00
2023-04-18T02:17:59.557Z,508.00
2023-04-18T02:18:59.581Z,503.00
2023-04-18T02:19:59.594Z,509.00
2023-04-18T02:20:59.637Z,504.00
2023-04-18T02:21:59.666Z,500.00
2023-04-18T02:23:00.568Z,506.00
2023-04-18T02:23:59.699Z,511.00
2023-04-18T02:24:59.712Z,509.00
2023-04-18T02:25:59.738Z,507.00
2023-04-18T02:27:00.067Z,507.00
2023-04-18T02:27:59.829Z,509.00
2023-04-18T02:29:00.562Z,508.00
2023-04-18T02:29:59.933Z,505.00
2023-04-18T02:30:59.930Z,509.00
2023-04-18T02:31:59.996Z,508.00
2023-04-18T02:32:59.994Z,506.00
2023-04-18T02:33:59.989Z,510.00
2023-04-18T02:35:00.066Z,501.00
2023-04-18T02:35:59.994Z,502.00
2023-04-18T02:37:00.004Z,503.00
2023-04-18T02:38:00.042Z,506.00
2023-04-18T02:39:00.079Z,505.00
2023-04-18T02:40:00.132Z,514.00
2023-04-18T02:41:00.171Z,505.00
2023-04-18T02:42:00.214Z,504.00
2023-04-18T02:43:00.236Z,510.00
2023-04-18T02:44:00.274Z,504.00
2023-04-18T02:45:00.335Z,505.00
2023-04-18T02:46:00.484Z,505.00
2023-04-18T02:47:00.419Z,504.00
2023-04-18T02:48:00.626Z,512.00
2023-04-18T02:49:00.503Z,509.00
2023-04-18T02:50:00.542Z,508.00
2023-04-18T02:51:00.610Z,506.00
2023-04-18T02:52:00.622Z,505.00
2023-04-18T02:53:00.673Z,506.00
2023-04-18T02:54:00.721Z,507.00
2023-04-18T02:55:00.760Z,511.00
2023-04-18T02:56:00.818Z,506.00
2023-04-18T02:57:00.864Z,500.00
2023-04-18T02:58:00.914Z,502.00
2023-04-18T02:59:00.976Z,505.00
2023-04-18T03:00:01.014Z,506.00
2023-04-18T03:01:01.118Z,507.00
2023-04-18T03:02:01.147Z,501.00
2023-04-18T03:03:01.284Z,502.00
2023-04-18T03:04:02.079Z,503.00
2023-04-18T03:05:01.276Z,506.00
2023-04-18T03:06:01.269Z,509.00
2023-04-18T03:07:01.294Z,505.00
2023-04-18T03:08:01.293Z,502.00
2023-04-18T03:09:01.322Z,511.00
2023-04-18T03:10:01.369Z,507.00
2023-04-18T03:11:02.075Z,507.00
2023-04-18T03:12:01.414Z,507.00
2023-04-18T03:13:01.487Z,505.00
2023-04-18T03:14:01.493Z,506.00
2023-04-18T03:15:01.524Z,509.00
2023-04-18T03:16:01.612Z,505.00
2023-04-18T03:17:01.634Z,503.00
2023-04-18T03:18:01.829Z,506.00
2023-04-18T03:19:01.739Z,508.00
2023-04-18T03:20:02.581Z,503.00
2023-04-18T03:21:02.578Z,505.00
2023-04-18T03:22:01.893Z,507.00
2023-04-18T03:23:01.952Z,504.00
2023-04-18T03:24:02.578Z,505.00
2023-04-18T03:25:02.578Z,508.00
2023-04-18T03:26:01.933Z,500.00
2023-04-18T03:27:01.977Z,502.00
2023-04-18T03:28:01.998Z,508.00
2023-04-18T03:29:02.076Z,502.00
2023-04-18T03:30:02.053Z,505.00
2023-04-18T03:31:02.149Z,506.00
2023-04-18T03:32:02.122Z,511.00
2023-04-18T03:33:02.178Z,501.00
2023-04-18T03:34:02.186Z,503.00
2023-04-18T03:35:02.212Z,505.00
2023-04-18T03:36:02.271Z,504.00
2023-04-18T03:37:02.329Z,506.00
2023-04-18T03:38:02.374Z,508.00
2023-04-18T03:39:02.582Z,505.00
2023-04-18T03:40:02.467Z,504.00
2023-04-18T03:41:02.517Z,503.00
2023-04-18T03:42:02.605Z,506.00
2023-04-18T03:43:02.645Z,504.00
2023-04-18T03:44:02.703Z,505.00
2023-04-18T03:45:02.747Z,510.00
2023-04-18T03:46:02.974Z,506.00
2023-04-18T03:47:02.836Z,504.00
2023-04-18T03:48:02.940Z,503.00
2023-04-18T03:49:02.876Z,508.00
2023-04-18T03:50:02.913Z,507.00
2023-04-18T03:51:02.944Z,508.00
2023-04-18T03:52:02.998Z,503.00
2023-04-18T03:53:03.418Z,502.00
2023-04-18T03:54:03.434Z,501.00
2023-04-18T03:55:03.464Z,508.00
2023-04-18T03:56:03.428Z,504.00
2023-04-18T03:57:03.426Z,501.00
2023-04-18T03:58:03.428Z,506.00
2023-04-18T03:59:03.454Z,502.00
2023-04-18T04:00:03.429Z,502.00
2023-04-18T04:01:03.484Z,505.00
2023-04-18T04:02:03.645Z,505.00
2023-04-18T04:03:03.757Z,506.00
2023-04-18T04:04:03.623Z,503.00
2023-04-18T04:05:03.640Z,501.00
2023-04-18T04:06:03.612Z,507.00
2023-04-18T04:07:03.629Z,503.00
2023-04-18T04:08:03.646Z,509.00
2023-04-18T04:09:03.664Z,502.00
2023-04-18T04:10:03.702Z,508.00
2023-04-18T04:11:03.749Z,509.00
2023-04-18T04:12:03.726Z,506.00
2023-04-18T04:13:03.768Z,507.00
2023-04-18T04:14:03.799Z,505.00
2023-04-18T04:15:03.840Z,508.00
2023-04-18T04:16:03.907Z,508.00
2023-04-18T04:17:03.932Z,503.00
2023-04-18T04:18:04.011Z,509.00
2023-04-18T04:19:04.437Z,502.00
2023-04-18T04:20:04.446Z,505.00
2023-04-18T04:21:04.440Z,504.00
2023-04-18T04:22:04.454Z,505.00
2023-04-18T04:23:04.438Z,509.00
2023-04-18T04:24:04.435Z,507.00
2023-04-18T04:25:04.477Z,506.00
2023-04-18T04:26:04.452Z,510.00
2023-04-18T04:27:04.459Z,507.00
2023-04-18T04:28:04.450Z,505.00
2023-04-18T04:29:04.449Z,503.00
2023-04-18T04:30:04.446Z,502.00
2023-04-18T04:31:04.445Z,505.00
2023-04-18T04:32:04.577Z,504.00
2023-04-18T04:33:04.531Z,505.00
2023-04-18T04:34:04.516Z,509.00
2023-04-18T04:35:04.550Z,512.00
2023-04-18T04:36:04.555Z,507.00
2023-04-18T04:37:04.621Z,500.00
2023-04-18T04:38:04.678Z,505.00
2023-04-18T04:39:04.717Z,507.00
2023-04-18T04:40:04.755Z,504.00
2023-04-18T04:41:04.815Z,507.00
2023-04-18T04:42:04.866Z,505.00
2023-04-18T04:43:05.045Z,506.00
2023-04-18T04:44:05.003Z,506.00
2023-04-18T04:45:05.032Z,506.00
2023-04-18T04:46:05.059Z,506.00
2023-04-18T04:47:05.082Z,510.00
2023-04-18T04:48:05.149Z,507.00
2023-04-18T04:49:05.165Z,504.00
2023-04-18T04:50:05.191Z,506.00
2023-04-18T04:51:05.226Z,506.00
2023-04-18T04:52:05.281Z,508.00
2023-04-18T04:53:05.341Z,509.00
2023-04-18T04:54:05.419Z,506.00
2023-04-18T04:55:05.451Z,509.00
2023-04-18T04:56:05.500Z,505.00
2023-04-18T04:57:05.537Z,508.00
2023-04-18T04:58:05.593Z,501.00
2023-04-18T04:59:05.650Z,503.00
2023-04-18T05:00:05.699Z,505.00
2023-04-18T05:01:05.752Z,509.00
2023-04-18T05:02:05.846Z,505.00
2023-04-18T05:03:05.898Z,507.00
2023-04-18T05:04:05.972Z,506.00
2023-04-18T05:05:05.929Z,509.00
2023-04-18T05:06:05.960Z,508.00
2023-04-18T05:07:05.976Z,504.00
2023-04-18T05:08:05.976Z,504.00
2023-04-18T05:09:05.969Z,507.00
2023-04-18T05:10:05.996Z,506.00
2023-04-18T05:11:06.023Z,504.00
2023-04-18T05:12:06.042Z,507.00
2023-04-18T05:13:06.045Z,505.00
2023-04-18T05:14:06.050Z,506.00
2023-04-18T05:15:06.106Z,502.00
2023-04-18T05:16:06.099Z,506.00
2023-04-18T05:17:06.228Z,510.00
2023-04-18T05:18:06.665Z,507.00
2023-04-18T05:19:06.146Z,501.00
2023-04-18T05:20:06.162Z,510.00
2023-04-18T05:21:06.173Z,507.00
2023-04-18T05:22:06.201Z,512.00
2023-04-18T05:23:06.205Z,511.00
2023-04-18T05:24:06.221Z,512.00
2023-04-18T05:25:06.280Z,508.00
2023-04-18T05:26:06.631Z,511.00
2023-04-18T05:27:07.126Z,511.00
2023-04-18T05:28:06.284Z,511.00
2023-04-18T05:29:06.281Z,516.00
2023-04-18T05:30:06.329Z,513.00
2023-04-18T05:31:06.409Z,515.00
2023-04-18T05:32:06.272Z,516.00
2023-04-18T05:33:06.673Z,517.00
2023-04-18T05:34:07.145Z,508.00
2023-04-18T05:35:06.284Z,513.00
2023-04-18T05:36:06.640Z,511.00
2023-04-18T05:37:06.233Z,508.00
2023-04-18T05:38:06.634Z,510.00
2023-04-18T05:39:06.240Z,518.00
2023-04-18T05:40:06.637Z,511.00
2023-04-18T05:41:06.228Z,511.00
2023-04-18T05:42:06.218Z,510.00
2023-04-18T05:43:06.236Z,513.00
2023-04-18T05:44:06.634Z,516.00
2023-04-18T05:45:06.252Z,512.00
2023-04-18T05:46:06.244Z,511.00
2023-04-18T05:47:06.274Z,510.00
2023-04-18T05:48:06.680Z,512.00
2023-04-18T05:49:06.654Z,513.00
2023-04-18T05:50:06.642Z,512.00
2023-04-18T05:51:06.346Z,512.00
2023-04-18T05:52:06.368Z,513.00
2023-04-18T05:53:06.393Z,517.00
2023-04-18T05:54:06.645Z,518.00
2023-04-18T05:55:06.407Z,515.00
2023-04-18T05:56:06.407Z,511.00
2023-04-18T05:57:06.437Z,516.00
2023-04-18T05:58:07.175Z,517.00
2023-04-18T05:59:06.479Z,514.00
2023-04-18T06:00:06.671Z,517.00
2023-04-18T06:01:06.506Z,511.00
2023-04-18T06:02:06.570Z,518.00
2023-04-18T06:03:09.202Z,514.00
2023-04-18T06:04:07.267Z,514.00
2023-04-18T06:05:06.714Z,515.00
2023-04-18T06:06:06.572Z,516.00
2023-04-18T06:07:06.570Z,519.00
2023-04-18T06:08:06.649Z,514.00
2023-04-18T06:09:06.587Z,518.00
2023-04-18T06:10:06.661Z,518.00
2023-04-18T06:11:06.577Z,522.00
2023-04-18T06:12:06.593Z,514.00
2023-04-18T06:13:06.795Z,517.00
2023-04-18T06:14:06.999Z,520.00
2023-04-18T06:15:07.092Z,517.00
2023-04-18T06:16:06.820Z,516.00
2023-04-18T06:17:08.249Z,517.00
2023-04-18T06:18:07.268Z,522.00
2023-04-18T06:19:07.572Z,521.00
2023-04-18T06:20:08.152Z,518.00
2023-04-18T06:21:07.478Z,523.00
2023-04-18T06:22:07.639Z,523.00
2023-04-18T06:23:07.671Z,518.00
2023-04-18T06:24:07.932Z,525.00
2023-04-18T06:25:08.092Z,523.00
2023-04-18T06:26:07.969Z,522.00
2023-04-18T06:27:14.918Z,520.00
2023-04-18T06:28:07.681Z,521.00
2023-04-18T06:29:07.799Z,523.00
2023-04-18T06:30:07.986Z,525.00
2023-04-18T06:31:07.854Z,528.00
2023-04-18T06:32:08.131Z,529.00
2023-04-18T06:33:07.836Z,529.00
2023-04-18T06:34:08.010Z,529.00
2023-04-18T06:35:07.689Z,528.00
2023-04-18T06:36:07.172Z,531.00
2023-04-18T06:37:07.153Z,525.00
2023-04-18T06:38:07.236Z,526.00
2023-04-18T06:39:07.106Z,533.00
2023-04-18T06:40:07.104Z,528.00
2023-04-18T06:41:07.095Z,525.00
2023-04-18T06:42:07.130Z,528.00
2023-04-18T06:43:07.207Z,526.00
2023-04-18T06:44:07.167Z,524.00
2023-04-18T06:45:07.191Z,526.00
2023-04-18T06:46:07.259Z,525.00
2023-04-18T06:47:07.712Z,527.00
2023-04-18T06:48:07.339Z,528.00
2023-04-18T06:49:08.351Z,525.00
2023-04-18T06:50:07.681Z,526.00
2023-04-18T06:51:07.696Z,531.00
2023-04-18T06:52:07.700Z,533.00
2023-04-18T06:53:07.526Z,531.00
2023-04-18T06:54:07.604Z,531.00
2023-04-18T06:55:07.671Z,524.00
2023-04-18T06:56:07.692Z,535.00
2023-04-18T06:57:07.697Z,526.00
2023-04-18T06:58:07.735Z,525.00
2023-04-18T06:59:08.166Z,533.00
2023-04-18T07:00:08.198Z,530.00
2023-04-18T07:01:07.900Z,532.00
2023-04-18T07:02:07.935Z,534.00
2023-04-18T07:03:10.832Z,531.00
2023-04-18T07:04:08.265Z,531.00
2023-04-18T07:05:07.995Z,532.00
2023-04-18T07:06:07.937Z,533.00
2023-04-18T07:07:07.990Z,533.00
2023-04-18T07:08:07.919Z,541.00
2023-04-18T07:09:08.172Z,538.00
2023-04-18T07:10:07.921Z,531.00
2023-04-18T07:11:07.925Z,537.00
2023-04-18T07:12:07.911Z,534.00
2023-04-18T07:13:07.907Z,535.00
2023-04-18T07:14:08.165Z,533.00
2023-04-18T07:15:07.906Z,532.00
2023-04-18T07:16:07.902Z,535.00
2023-04-18T07:17:10.760Z,535.00
2023-04-18T07:18:07.908Z,542.00
2023-04-18T07:19:08.874Z,542.00
2023-04-18T07:20:08.200Z,544.00
2023-04-18T07:21:08.125Z,540.00
2023-04-18T07:22:07.856Z,546.00
2023-04-18T07:23:10.771Z,541.00
2023-04-18T07:24:08.170Z,541.00
2023-04-18T07:25:07.827Z,540.00
2023-04-18T07:26:07.823Z,543.00
2023-04-18T07:27:07.809Z,541.00
2023-04-18T07:28:11.385Z,544.00
2023-04-18T07:29:08.196Z,541.00
2023-04-18T07:30:07.795Z,542.00
2023-04-18T07:31:07.825Z,542.00
2023-04-18T07:32:08.641Z,541.00
2023-04-18T07:33:08.173Z,547.00
2023-04-18T07:34:08.673Z,537.00
2023-04-18T07:35:07.760Z,545.00
2023-04-18T07:36:07.751Z,543.00
2023-04-18T07:37:07.790Z,547.00
2023-04-18T07:38:08.779Z,548.00
2023-04-18T07:39:08.647Z,550.00
2023-04-18T07:40:08.203Z,551.00
2023-04-18T07:41:08.714Z,546.00
2023-04-18T07:42:07.800Z,542.00
2023-04-18T07:43:07.792Z,547.00
2023-04-18T07:44:08.683Z,541.00
2023-04-18T07:45:11.125Z,553.00
2023-04-18T07:46:07.946Z,553.00
2023-04-18T07:47:07.895Z,551.00
2023-04-18T07:48:07.948Z,551.00
2023-04-18T07:49:08.210Z,548.00
2023-04-18T07:50:07.886Z,552.00
2023-04-18T07:51:08.187Z,554.00
2023-04-18T07:52:07.922Z,551.00
2023-04-18T07:53:07.855Z,549.00
2023-04-18T07:54:08.206Z,549.00
2023-04-18T07:55:08.907Z,546.00
2023-04-18T07:56:08.562Z,551.00
2023-04-18T07:57:08.817Z,554.00
2023-04-18T07:58:07.811Z,540.00
2023-04-18T07:59:07.804Z,552.00
2023-04-18T08:00:10.695Z,549.00
2023-04-18T08:01:08.571Z,549.00
2023-04-18T08:02:07.857Z,549.00
2023-04-18T08:03:08.042Z,552.00
2023-04-18T08:04:07.970Z,550.00
2023-04-18T08:05:08.115Z,552.00
2023-04-18T08:06:08.563Z,551.00
2023-04-18T08:07:07.723Z,549.00
2023-04-18T08:08:07.721Z,552.00
2023-04-18T08:09:08.566Z,553.00
2023-04-18T08:10:08.572Z,551.00
2023-04-18T08:11:07.699Z,552.00
2023-04-18T08:12:08.565Z,557.00
2023-04-18T08:13:08.566Z,554.00
2023-04-18T08:14:08.575Z,552.00
2023-04-18T08:15:08.584Z,555.00
2023-04-18T08:16:07.899Z,559.00
2023-04-18T08:17:10.696Z,552.00
2023-04-18T08:18:10.687Z,566.00
2023-04-18T08:19:08.630Z,566.00
2023-04-18T08:20:08.583Z,566.00
2023-04-18T08:21:08.714Z,561.00
2023-04-18T08:22:07.827Z,564.00
2023-04-18T08:23:11.308Z,564.00
2023-04-18T08:24:07.790Z,567.00
2023-04-18T08:25:07.776Z,567.00
2023-04-18T08:26:08.572Z,566.00
2023-04-18T08:27:07.849Z,567.00
2023-04-18T08:28:07.978Z,565.00
2023-04-18T08:29:07.921Z,565.00
2023-04-18T08:30:09.699Z,561.00
2023-04-18T08:31:07.723Z,567.00
2023-04-18T08:32:10.784Z,569.00
2023-04-18T08:33:08.615Z,570.00
2023-04-18T08:34:07.685Z,571.00
2023-04-18T08:35:07.710Z,570.00
2023-04-18T08:36:07.670Z,570.00
2023-04-18T08:37:07.649Z,564.00
2023-04-18T08:38:07.663Z,568.00
2023-04-18T08:39:07.658Z,568.00
2023-04-18T08:40:07.777Z,561.00
2023-04-18T08:41:07.608Z,567.00
2023-04-18T08:42:07.652Z,564.00
2023-04-18T08:43:07.934Z,569.00
2023-04-18T08:44:08.734Z,565.00
2023-04-18T08:45:08.593Z,544.00
2023-04-18T08:46:08.725Z,565.00
2023-04-18T08:47:08.711Z,556.00
2023-04-18T08:48:10.748Z,559.00
2023-04-18T08:49:09.650Z,572.00
2023-04-18T08:50:08.592Z,572.00
2023-04-18T08:51:08.701Z,572.00
2023-04-18T08:52:07.920Z,570.00
2023-04-18T08:53:07.937Z,563.00
2023-04-18T08:54:09.734Z,564.00
2023-04-18T08:55:07.908Z,561.00
2023-04-18T08:56:07.947Z,574.00
2023-04-18T08:57:07.876Z,573.00
2023-04-18T08:58:09.729Z,558.00
2023-04-18T08:59:08.660Z,558.00
2023-04-18T09:00:14.712Z,558.00
2023-04-18T09:01:07.900Z,559.00
2023-04-18T09:02:07.860Z,561.00
2023-04-18T09:03:08.766Z,564.00
2023-04-18T09:04:07.786Z,568.00
2023-04-18T09:05:07.754Z,572.00
2023-04-18T09:06:07.813Z,572.00
2023-04-18T09:07:07.727Z,573.00
2023-04-18T09:08:08.229Z,568.00
2023-04-18T09:09:07.702Z,564.00
2023-04-18T09:10:10.723Z,563.00
2023-04-18T09:11:07.720Z,570.00
2023-04-18T09:12:07.706Z,571.00
2023-04-18T09:13:07.708Z,566.00
2023-04-18T09:14:07.693Z,569.00
2023-04-18T09:15:08.296Z,557.00
2023-04-18T09:16:10.252Z,568.00
2023-04-18T09:17:07.746Z,569.00
2023-04-18T09:18:07.746Z,570.00
2023-04-18T09:19:08.171Z,569.00
2023-04-18T09:20:07.626Z,574.00
2023-04-18T09:21:07.716Z,574.00
2023-04-18T09:22:08.231Z,570.00
2023-04-18T09:23:07.593Z,572.00
2023-04-18T09:24:10.676Z,574.00
2023-04-18T09:25:07.720Z,574.00
2023-04-18T09:26:22.615Z,575.00
2023-04-18T09:27:25.926Z,500.00
2023-04-18T09:28:27.026Z,500.00
2023-04-18T09:29:26.719Z,500.00
2023-04-18T09:30:26.743Z,500.00
2023-04-18T09:31:26.705Z,500.00
2023-04-18T09:32:27.179Z,500.00
2023-04-18T09:33:26.924Z,505.00
2023-04-18T09:34:26.717Z,506.00
2023-04-18T09:35:29.437Z,503.00
2023-04-18T09:36:27.015Z,504.00
2023-04-18T09:37:26.648Z,504.00
2023-04-18T09:38:26.623Z,496.00
2023-04-18T09:39:26.620Z,501.00
2023-04-18T09:40:26.951Z,500.00
2023-04-18T09:41:26.822Z,494.00
2023-04-18T09:42:28.768Z,511.00
2023-04-18T09:43:26.624Z,510.00
2023-04-18T09:44:27.738Z,518.00
2023-04-18T09:45:26.649Z,515.00
2023-04-18T09:46:27.072Z,522.00
2023-04-18T09:47:26.990Z,517.00
2023-04-18T09:48:26.622Z,519.00
2023-04-18T09:49:26.625Z,504.00
2023-04-18T09:50:26.623Z,512.00
2023-04-18T09:51:26.957Z,508.00
2023-04-18T09:52:26.701Z,512.00
2023-04-18T09:53:26.769Z,509.00
2023-04-18T09:54:27.627Z,509.00
2023-04-18T09:55:26.931Z,505.00
2023-04-18T09:56:26.938Z,499.00
2023-04-18T09:57:26.985Z,512.00
2023-04-18T09:58:27.044Z,516.00
2023-04-18T09:59:27.100Z,518.00
2023-04-18T10:00:27.652Z,517.00
2023-04-18T10:01:27.323Z,507.00
2023-04-18T10:02:27.965Z,510.00
2023-04-18T10:03:27.717Z,521.00
2023-04-18T10:04:27.671Z,519.00
2023-04-18T10:05:28.027Z,518.00
2023-04-18T10:06:27.636Z,521.00
2023-04-18T10:07:27.758Z,509.00
2023-04-18T10:08:27.636Z,516.00
2023-04-18T10:09:28.645Z,512.00
2023-04-18T10:10:27.946Z,509.00
2023-04-18T10:11:27.760Z,518.00
2023-04-18T10:12:27.821Z,505.00
2023-04-18T10:13:28.018Z,512.00
2023-04-18T10:14:28.551Z,511.00
2023-04-18T10:15:28.072Z,515.00
2023-04-18T10:16:28.101Z,514.00
2023-04-18T10:17:29.666Z,514.00
2023-04-18T10:18:28.528Z,510.00
2023-04-18T10:19:28.501Z,511.00
2023-04-18T10:20:28.059Z,511.00
2023-04-18T10:21:28.070Z,511.00
2023-04-18T10:22:28.042Z,509.00
2023-04-18T10:23:28.539Z,510.00
2023-04-18T10:24:28.452Z,508.00
2023-04-18T10:25:28.052Z,516.00
2023-04-18T10:26:28.434Z,514.00
2023-04-18T10:27:28.148Z,519.00
2023-04-18T10:28:28.667Z,516.00
2023-04-18T10:29:28.223Z,513.00
2023-04-18T10:30:28.276Z,511.00
2023-04-18T10:31:28.630Z,512.00
2023-04-18T10:32:28.428Z,521.00
2023-04-18T10:33:31.968Z,518.00
2023-04-18T10:34:28.457Z,518.00
2023-04-18T10:35:28.426Z,518.00
2023-04-18T10:36:28.905Z,520.00
2023-04-18T10:37:28.603Z,512.00
2023-04-18T10:38:28.404Z,511.00
2023-04-18T10:39:28.390Z,513.00
2023-04-18T10:40:28.426Z,517.00
2023-04-18T10:41:28.942Z,517.00
2023-04-18T10:42:28.971Z,521.00
2023-04-18T10:43:28.552Z,515.00
2023-04-18T10:44:28.690Z,517.00
2023-04-18T10:45:28.642Z,522.00
2023-04-18T10:46:32.458Z,515.00
2023-04-18T10:47:28.983Z,516.00
2023-04-18T10:48:28.662Z,517.00
2023-04-18T10:49:31.158Z,516.00
2023-04-18T10:50:28.727Z,516.00
2023-04-18T10:51:28.944Z,517.00
2023-04-18T10:52:28.660Z,519.00
2023-04-18T10:53:28.717Z,519.00
2023-04-18T10:54:28.968Z,517.00
2023-04-18T10:55:31.661Z,523.00
2023-04-18T10:56:28.947Z,524.00
2023-04-18T10:57:28.580Z,518.00
2023-04-18T10:58:28.546Z,523.00
2023-04-18T10:59:28.551Z,524.00
2023-04-18T11:00:28.519Z,524.00
2023-04-18T11:01:32.141Z,513.00
2023-04-18T11:02:28.733Z,514.00
2023-04-18T11:03:28.638Z,515.00
2023-04-18T11:04:28.584Z,511.00
2023-04-18T11:05:28.492Z,519.00
2023-04-18T11:06:29.115Z,518.00
2023-04-18T11:07:30.035Z,513.00
2023-04-18T11:08:28.631Z,517.00
2023-04-18T11:09:28.979Z,521.00
2023-04-18T11:10:31.450Z,519.00
2023-04-18T11:11:28.958Z,528.00
2023-04-18T11:12:31.472Z,533.00
2023-04-18T11:13:28.671Z,533.00
2023-04-18T11:14:28.656Z,523.00
2023-04-18T11:15:30.858Z,527.00
2023-04-18T11:16:29.515Z,519.00
2023-04-18T11:17:31.838Z,529.00
2023-04-18T11:18:28.607Z,533.00
2023-04-18T11:19:28.622Z,524.00
2023-04-18T11:20:29.488Z,513.00
2023-04-18T11:21:30.448Z,529.00
2023-04-18T11:22:28.636Z,521.00
2023-04-18T11:23:28.594Z,533.00
2023-04-18T11:24:28.494Z,528.00
2023-04-18T11:25:28.494Z,522.00
2023-04-18T11:26:28.468Z,514.00
2023-04-18T11:27:28.467Z,512.00
2023-04-18T11:28:28.447Z,522.00
2023-04-18T11:29:28.414Z,522.00
2023-04-18T11:30:28.409Z,515.00
2023-04-18T11:31:28.448Z,513.00
2023-04-18T11:32:28.547Z,520.00
2023-04-18T11:33:28.494Z,525.00
2023-04-18T11:34:28.373Z,525.00
2023-04-18T11:35:28.434Z,521.00
2023-04-18T11:36:28.965Z,517.00
2023-04-18T11:37:28.969Z,506.00
2023-04-18T11:38:29.035Z,507.00
2023-04-18T11:39:30.970Z,522.00
2023-04-18T11:40:28.649Z,522.00
2023-04-18T11:41:28.276Z,515.00
2023-04-18T11:42:28.268Z,521.00
2023-04-18T11:43:28.970Z,515.00
2023-04-18T11:44:28.236Z,515.00
2023-04-18T11:45:28.968Z,527.00
2023-04-18T11:46:28.283Z,528.00
2023-04-18T11:47:29.999Z,526.00
2023-04-18T11:48:30.968Z,524.00
2023-04-18T11:49:28.176Z,525.00
2023-04-18T11:50:28.171Z,526.00
2023-04-18T11:51:28.145Z,526.00
2023-04-18T11:52:28.700Z,527.00
2023-04-18T11:53:28.130Z,535.00
2023-04-18T11:54:31.034Z,528.00
2023-04-18T11:55:28.095Z,528.00
2023-04-18T11:56:28.090Z,527.00
2023-04-18T11:57:28.702Z,531.00
2023-04-18T11:58:28.061Z,531.00
2023-04-18T11:59:28.046Z,528.00
2023-04-18T12:00:28.034Z,523.00
2023-04-18T12:01:28.063Z,536.00
2023-04-18T12:02:28.604Z,533.00
2023-04-18T12:03:28.121Z,514.00
2023-04-18T12:04:28.287Z,523.00
2023-04-18T12:05:28.180Z,526.00
2023-04-18T12:06:28.000Z,528.00
2023-04-18T12:07:27.973Z,532.00
2023-04-18T12:08:27.949Z,527.00
2023-04-18T12:09:27.953Z,537.00
2023-04-18T12:10:28.965Z,534.00
2023-04-18T12:11:27.926Z,533.00
2023-04-18T12:12:27.976Z,529.00
2023-04-18T12:13:29.079Z,525.00
2023-04-18T12:14:28.068Z,534.00
2023-04-18T12:15:28.128Z,536.00
2023-04-18T12:16:28.345Z,523.00
2023-04-18T12:17:28.501Z,526.00
2023-04-18T12:18:28.478Z,531.00
2023-04-18T12:19:28.677Z,533.00
2023-04-18T12:20:28.715Z,532.00
2023-04-18T12:21:28.709Z,527.00
2023-04-18T12:22:29.009Z,523.00
2023-04-18T12:23:28.981Z,529.00
2023-04-18T12:24:28.715Z,520.00
2023-04-18T12:25:28.712Z,532.00
2023-04-18T12:26:28.746Z,529.00
2023-04-18T12:27:29.731Z,526.00
2023-04-18T12:28:28.738Z,529.00
2023-04-18T12:29:28.774Z,526.00